sensor_id;sensor_type;location;lat;lon;timestamp;temperature;humidity
13642;DHT22;6894;52.196;9.904;2023-03-01T00:01:28;-2.10;1.00
13642;DHT22;6894;52.196;9.904;2023-03-01T00:03:56;-2.00;1.00
13642;DHT22;6894;52.196;9.904;2023-03-01T00:06:24;-2.20;1.00
13642;DHT22;6894;52.196;9.904;2023-03-01T00:08:51;-2.20;1.00
13642;DHT22;6894;52.196;9.904;2023-03-01T00:11:21;-2.20;1.00
13642;DHT22;6894;52.196;9.904;2023-03-01T00:13:49;-2.20;1.00
13642;DHT22;6894;52.196;9.904;2023-03-01T00:16:19;-2.30;1.00
13642;DHT22;6894;52.196;9.904;2023-03-01T00:18:46;-2.40;1.00
13642;DHT22;6894;52.196;9.904;2023-03-01T00:21:13;-2.40;1.00
13642;DHT22;6894;52.196;9.904;2023-03-01T00:23:40;-2.40;1.00
13642;DHT22;6894;52.196;9.904;2023-03-01T00:26:09;-2.50;1.00
13642;DHT22;6894;52.196;9.904;2023-03-01T00:28:37;-2.60;1.00
13642;DHT22;6894;52.196;9.904;2023-03-01T00:31:04;-2.50;1.00
13642;DHT22;6894;52.196;9.904;2023-03-01T00:33:32;-2.60;1.00
13642;DHT22;6894;52.196;9.904;2023-03-01T00:35:59;-2.60;1.00
13642;DHT22;6894;52.196;9.904;2023-03-01T00:38:26;-2.70;1.00
13642;DHT22;6894;52.196;9.904;2023-03-01T00:40:53;-2.70;1.00
13642;DHT22;6894;52.196;9.904;2023-03-01T00:43:20;-2.80;1.00
13642;DHT22;6894;52.196;9.904;2023-03-01T00:45:48;-2.80;1.00
13642;DHT22;6894;52.196;9.904;2023-03-01T00:48:15;-2.80;1.00
13642;DHT22;6894;52.196;9.904;2023-03-01T00:50:42;-2.80;1.00
13642;DHT22;6894;52.196;9.904;2023-03-01T00:53:08;-2.80;1.00
13642;DHT22;6894;52.196;9.904;2023-03-01T00:55:36;-2.50;1.00
13642;DHT22;6894;52.196;9.904;2023-03-01T00:58:02;-2.80;1.00
13642;DHT22;6894;52.196;9.904;2023-03-01T01:00:29;-2.90;1.00
13642;DHT22;6894;52.196;9.904;2023-03-01T01:02:57;-2.80;1.00
13642;DHT22;6894;52.196;9.904;2023-03-01T01:05:24;-2.90;1.00
13642;DHT22;6894;52.196;9.904;2023-03-01T01:07:51;-2.60;1.00
13642;DHT22;6894;52.196;9.904;2023-03-01T01:10:18;-3.00;1.00
13642;DHT22;6894;52.196;9.904;2023-03-01T01:12:45;-3.00;1.00
13642;DHT22;6894;52.196;9.904;2023-03-01T01:15:12;-3.00;1.00
13642;DHT22;6894;52.196;9.904;2023-03-01T01:17:42;-3.10;1.00
13642;DHT22;6894;52.196;9.904;2023-03-01T01:20:11;-3.10;1.00
13642;DHT22;6894;52.196;9.904;2023-03-01T01:22:38;-3.10;1.00
13642;DHT22;6894;52.196;9.904;2023-03-01T01:25:05;-3.10;1.00
13642;DHT22;6894;52.196;9.904;2023-03-01T01:27:32;-3.20;1.00
13642;DHT22;6894;52.196;9.904;2023-03-01T01:29:59;-3.20;1.00
13642;DHT22;6894;52.196;9.904;2023-03-01T01:32:25;-3.10;1.00
13642;DHT22;6894;52.196;9.904;2023-03-01T01:34:52;-3.20;1.00
13642;DHT22;6894;52.196;9.904;2023-03-01T01:37:21;-3.00;1.00
13642;DHT22;6894;52.196;9.904;2023-03-01T01:39:47;-3.20;1.00
13642;DHT22;6894;52.196;9.904;2023-03-01T01:42:15;-3.20;1.00
13642;DHT22;6894;52.196;9.904;2023-03-01T01:44:44;-3.20;1.00
13642;DHT22;6894;52.196;9.904;2023-03-01T01:47:15;-3.20;1.00
13642;DHT22;6894;52.196;9.904;2023-03-01T01:49:45;-3.20;1.00
13642;DHT22;6894;52.196;9.904;2023-03-01T01:52:17;-3.30;1.00
13642;DHT22;6894;52.196;9.904;2023-03-01T01:54:50;-3.30;1.00
13642;DHT22;6894;52.196;9.904;2023-03-01T01:57:20;-3.30;1.00
13642;DHT22;6894;52.196;9.904;2023-03-01T01:59:50;-3.40;1.00
13642;DHT22;6894;52.196;9.904;2023-03-01T02:02:19;-3.30;1.00
13642;DHT22;6894;52.196;9.904;2023-03-01T02:04:48;-3.40;1.00
13642;DHT22;6894;52.196;9.904;2023-03-01T02:07:16;-3.40;1.00
13642;DHT22;6894;52.196;9.904;2023-03-01T02:09:47;-3.40;1.00
13642;DHT22;6894;52.196;9.904;2023-03-01T02:12:16;-3.30;1.00
13642;DHT22;6894;52.196;9.904;2023-03-01T02:14:43;-3.40;1.00
13642;DHT22;6894;52.196;9.904;2023-03-01T02:17:11;-3.40;1.00
13642;DHT22;6894;52.196;9.904;2023-03-01T02:19:47;-3.30;1.00
13642;DHT22;6894;52.196;9.904;2023-03-01T02:22:22;-3.60;1.00
13642;DHT22;6894;52.196;9.904;2023-03-01T02:25:00;-3.60;1.00
13642;DHT22;6894;52.196;9.904;2023-03-01T02:27:37;-3.70;1.00
13642;DHT22;6894;52.196;9.904;2023-03-01T02:30:08;-3.70;1.00
13642;DHT22;6894;52.196;9.904;2023-03-01T02:32:38;-3.70;1.00
13642;DHT22;6894;52.196;9.904;2023-03-01T02:35:08;-3.70;1.00
13642;DHT22;6894;52.196;9.904;2023-03-01T02:37:35;-3.70;1.00
13642;DHT22;6894;52.196;9.904;2023-03-01T02:40:05;-3.70;1.00
13642;DHT22;6894;52.196;9.904;2023-03-01T02:42:42;-3.70;1.00
13642;DHT22;6894;52.196;9.904;2023-03-01T02:45:13;-3.60;1.00
13642;DHT22;6894;52.196;9.904;2023-03-01T02:47:40;-3.70;1.00
13642;DHT22;6894;52.196;9.904;2023-03-01T02:50:17;-3.70;1.00
13642;DHT22;6894;52.196;9.904;2023-03-01T02:52:56;-3.70;1.00
13642;DHT22;6894;52.196;9.904;2023-03-01T02:55:24;-3.60;1.00
13642;DHT22;6894;52.196;9.904;2023-03-01T02:57:51;-3.50;1.00
13642;DHT22;6894;52.196;9.904;2023-03-01T03:00:21;-3.70;1.00
13642;DHT22;6894;52.196;9.904;2023-03-01T03:02:52;-3.80;1.00
13642;DHT22;6894;52.196;9.904;2023-03-01T03:05:22;-3.80;1.00
13642;DHT22;6894;52.196;9.904;2023-03-01T03:07:50;-3.90;1.00
13642;DHT22;6894;52.196;9.904;2023-03-01T03:10:20;-3.90;1.00
13642;DHT22;6894;52.196;9.904;2023-03-01T03:12:49;-3.90;1.00
13642;DHT22;6894;52.196;9.904;2023-03-01T03:15:18;-4.00;1.00
13642;DHT22;6894;52.196;9.904;2023-03-01T03:17:46;-4.10;1.00
13642;DHT22;6894;52.196;9.904;2023-03-01T03:20:15;-4.10;1.00
13642;DHT22;6894;52.196;9.904;2023-03-01T03:22:44;-4.00;1.00
13642;DHT22;6894;52.196;9.904;2023-03-01T03:25:11;-4.10;1.00
13642;DHT22;6894;52.196;9.904;2023-03-01T03:27:39;-4.10;1.00
13642;DHT22;6894;52.196;9.904;2023-03-01T03:30:09;-4.10;1.00
13642;DHT22;6894;52.196;9.904;2023-03-01T03:32:39;-4.20;1.00
13642;DHT22;6894;52.196;9.904;2023-03-01T03:35:07;-4.20;1.00
13642;DHT22;6894;52.196;9.904;2023-03-01T03:37:36;-4.20;1.00
13642;DHT22;6894;52.196;9.904;2023-03-01T03:40:20;-4.10;1.00
13642;DHT22;6894;52.196;9.904;2023-03-01T03:42:47;-4.10;1.00
13642;DHT22;6894;52.196;9.904;2023-03-01T03:45:14;-4.10;1.00
13642;DHT22;6894;52.196;9.904;2023-03-01T03:47:43;-4.00;1.00
13642;DHT22;6894;52.196;9.904;2023-03-01T03:50:11;-4.10;1.00
13642;DHT22;6894;52.196;9.904;2023-03-01T03:52:38;-4.00;1.00
13642;DHT22;6894;52.196;9.904;2023-03-01T03:55:06;-4.00;1.00
13642;DHT22;6894;52.196;9.904;2023-03-01T03:57:36;-4.00;11.90
13642;DHT22;6894;52.196;9.904;2023-03-01T04:00:04;-3.90;28.50
13642;DHT22;6894;52.196;9.904;2023-03-01T04:02:31;-3.90;49.10
13642;DHT22;6894;52.196;9.904;2023-03-01T04:04:59;-3.40;86.30
13642;DHT22;6894;52.196;9.904;2023-03-01T04:07:26;-3.90;97.70
13642;DHT22;6894;52.196;9.904;2023-03-01T04:09:52;-3.90;99.90
13642;DHT22;6894;52.196;9.904;2023-03-01T04:12:19;-3.90;99.90
13642;DHT22;6894;52.196;9.904;2023-03-01T04:14:48;-4.00;99.90
13642;DHT22;6894;52.196;9.904;2023-03-01T04:17:15;-4.00;99.90
13642;DHT22;6894;52.196;9.904;2023-03-01T04:19:42;-3.80;99.90
13642;DHT22;6894;52.196;9.904;2023-03-01T04:22:10;-4.10;99.90
13642;DHT22;6894;52.196;9.904;2023-03-01T04:24:42;-4.10;99.90
13642;DHT22;6894;52.196;9.904;2023-03-01T04:27:09;-4.20;99.90
13642;DHT22;6894;52.196;9.904;2023-03-01T04:29:36;-4.10;99.90
13642;DHT22;6894;52.196;9.904;2023-03-01T04:32:03;-3.80;99.90
13642;DHT22;6894;52.196;9.904;2023-03-01T04:34:30;-4.20;99.90
13642;DHT22;6894;52.196;9.904;2023-03-01T04:36:57;-4.20;99.90
13642;DHT22;6894;52.196;9.904;2023-03-01T04:39:25;-4.20;99.90
13642;DHT22;6894;52.196;9.904;2023-03-01T04:41:52;-4.20;99.90
13642;DHT22;6894;52.196;9.904;2023-03-01T04:44:18;-4.30;99.90
13642;DHT22;6894;52.196;9.904;2023-03-01T04:46:48;-4.30;99.90
13642;DHT22;6894;52.196;9.904;2023-03-01T04:49:14;-4.30;99.90
13642;DHT22;6894;52.196;9.904;2023-03-01T04:51:41;-4.30;99.90
13642;DHT22;6894;52.196;9.904;2023-03-01T04:54:08;-4.30;99.90
13642;DHT22;6894;52.196;9.904;2023-03-01T04:56:37;-4.20;99.90
13642;DHT22;6894;52.196;9.904;2023-03-01T04:59:03;-4.30;99.90
13642;DHT22;6894;52.196;9.904;2023-03-01T05:01:31;-4.30;99.90
13642;DHT22;6894;52.196;9.904;2023-03-01T05:03:58;-4.40;99.90
13642;DHT22;6894;52.196;9.904;2023-03-01T05:06:28;-4.40;99.90
13642;DHT22;6894;52.196;9.904;2023-03-01T05:08:55;-4.50;99.90
13642;DHT22;6894;52.196;9.904;2023-03-01T05:11:22;-4.40;99.90
13642;DHT22;6894;52.196;9.904;2023-03-01T05:13:50;-4.40;99.90
13642;DHT22;6894;52.196;9.904;2023-03-01T05:16:20;-4.40;99.90
13642;DHT22;6894;52.196;9.904;2023-03-01T05:18:47;-4.40;99.90
13642;DHT22;6894;52.196;9.904;2023-03-01T05:21:16;-4.50;99.90
13642;DHT22;6894;52.196;9.904;2023-03-01T05:23:43;-4.50;99.90
13642;DHT22;6894;52.196;9.904;2023-03-01T05:26:10;-4.60;99.90
13642;DHT22;6894;52.196;9.904;2023-03-01T05:28:38;-4.60;99.90
13642;DHT22;6894;52.196;9.904;2023-03-01T05:31:06;-4.70;99.90
13642;DHT22;6894;52.196;9.904;2023-03-01T05:33:35;-4.60;99.90
13642;DHT22;6894;52.196;9.904;2023-03-01T05:36:03;-4.70;99.90
13642;DHT22;6894;52.196;9.904;2023-03-01T05:38:30;-4.60;99.90
13642;DHT22;6894;52.196;9.904;2023-03-01T05:40:57;-4.60;99.90
13642;DHT22;6894;52.196;9.904;2023-03-01T05:43:23;-4.60;99.90
13642;DHT22;6894;52.196;9.904;2023-03-01T05:45:50;-4.60;99.90
13642;DHT22;6894;52.196;9.904;2023-03-01T05:48:18;-4.60;99.90
13642;DHT22;6894;52.196;9.904;2023-03-01T05:50:46;-4.60;99.90
13642;DHT22;6894;52.196;9.904;2023-03-01T05:53:14;-4.50;99.90
13642;DHT22;6894;52.196;9.904;2023-03-01T05:55:42;-4.60;99.90
13642;DHT22;6894;52.196;9.904;2023-03-01T05:58:11;-4.30;99.90
13642;DHT22;6894;52.196;9.904;2023-03-01T06:00:39;-4.60;99.90
13642;DHT22;6894;52.196;9.904;2023-03-01T06:03:06;-4.50;99.90
13642;DHT22;6894;52.196;9.904;2023-03-01T06:05:36;-4.50;99.90
13642;DHT22;6894;52.196;9.904;2023-03-01T06:08:04;-4.50;99.90
13642;DHT22;6894;52.196;9.904;2023-03-01T06:10:33;-4.60;99.90
13642;DHT22;6894;52.196;9.904;2023-03-01T06:12:59;-4.60;99.90
13642;DHT22;6894;52.196;9.904;2023-03-01T06:15:26;-4.70;99.90
13642;DHT22;6894;52.196;9.904;2023-03-01T06:17:54;-4.70;99.90
13642;DHT22;6894;52.196;9.904;2023-03-01T06:20:24;-3.40;99.90
13642;DHT22;6894;52.196;9.904;2023-03-01T06:22:52;-4.80;99.90
13642;DHT22;6894;52.196;9.904;2023-03-01T06:25:21;-4.70;99.90
13642;DHT22;6894;52.196;9.904;2023-03-01T06:27:48;-4.80;99.90
13642;DHT22;6894;52.196;9.904;2023-03-01T06:30:17;-4.70;99.90
13642;DHT22;6894;52.196;9.904;2023-03-01T06:32:44;-4.70;99.90
13642;DHT22;6894;52.196;9.904;2023-03-01T06:35:14;-4.70;99.90
13642;DHT22;6894;52.196;9.904;2023-03-01T06:37:43;-4.70;99.90
13642;DHT22;6894;52.196;9.904;2023-03-01T06:40:12;-3.80;99.90
13642;DHT22;6894;52.196;9.904;2023-03-01T06:42:41;-4.60;99.90
13642;DHT22;6894;52.196;9.904;2023-03-01T06:45:09;-4.60;99.90
13642;DHT22;6894;52.196;9.904;2023-03-01T06:47:36;-4.50;99.90
13642;DHT22;6894;52.196;9.904;2023-03-01T06:50:03;-4.50;99.90
13642;DHT22;6894;52.196;9.904;2023-03-01T06:52:30;-4.50;99.90
13642;DHT22;6894;52.196;9.904;2023-03-01T06:54:57;-4.40;99.90
13642;DHT22;6894;52.196;9.904;2023-03-01T06:57:25;-4.40;99.90
13642;DHT22;6894;52.196;9.904;2023-03-01T06:59:52;-4.40;99.90
13642;DHT22;6894;52.196;9.904;2023-03-01T07:02:19;-4.30;99.90
13642;DHT22;6894;52.196;9.904;2023-03-01T07:04:45;-4.30;99.90
13642;DHT22;6894;52.196;9.904;2023-03-01T07:07:12;-4.20;99.90
13642;DHT22;6894;52.196;9.904;2023-03-01T07:09:39;-4.10;99.90
13642;DHT22;6894;52.196;9.904;2023-03-01T07:12:06;-4.10;99.90
13642;DHT22;6894;52.196;9.904;2023-03-01T07:14:34;-4.00;99.90
13642;DHT22;6894;52.196;9.904;2023-03-01T07:17:01;-3.80;99.90
13642;DHT22;6894;52.196;9.904;2023-03-01T07:19:28;-3.60;99.90
13642;DHT22;6894;52.196;9.904;2023-03-01T07:21:54;-3.50;99.90
13642;DHT22;6894;52.196;9.904;2023-03-01T07:24:22;-3.40;99.90
13642;DHT22;6894;52.196;9.904;2023-03-01T07:26:49;-3.20;99.90
13642;DHT22;6894;52.196;9.904;2023-03-01T07:29:16;-3.00;99.90
13642;DHT22;6894;52.196;9.904;2023-03-01T07:31:44;-2.80;99.90
13642;DHT22;6894;52.196;9.904;2023-03-01T07:34:11;-2.60;99.90
13642;DHT22;6894;52.196;9.904;2023-03-01T07:36:38;-2.40;99.90
13642;DHT22;6894;52.196;9.904;2023-03-01T07:39:08;-2.20;99.90
13642;DHT22;6894;52.196;9.904;2023-03-01T07:41:35;-2.00;99.90
13642;DHT22;6894;52.196;9.904;2023-03-01T07:44:02;-1.60;99.90
13642;DHT22;6894;52.196;9.904;2023-03-01T07:46:29;-1.40;99.90
13642;DHT22;6894;52.196;9.904;2023-03-01T07:48:57;-1.10;99.90
13642;DHT22;6894;52.196;9.904;2023-03-01T07:51:24;-0.70;99.90
13642;DHT22;6894;52.196;9.904;2023-03-01T07:53:51;-0.50;99.90
13642;DHT22;6894;52.196;9.904;2023-03-01T07:56:17;-0.20;99.90
13642;DHT22;6894;52.196;9.904;2023-03-01T07:58:45;0.10;99.90
13642;DHT22;6894;52.196;9.904;2023-03-01T08:01:14;0.40;97.30
13642;DHT22;6894;52.196;9.904;2023-03-01T08:03:41;0.60;26.90
13642;DHT22;6894;52.196;9.904;2023-03-01T08:06:12;0.90;1.00
13642;DHT22;6894;52.196;9.904;2023-03-01T08:08:40;1.20;1.00
13642;DHT22;6894;52.196;9.904;2023-03-01T08:11:09;1.40;1.00
13642;DHT22;6894;52.196;9.904;2023-03-01T08:13:36;1.80;1.00
13642;DHT22;6894;52.196;9.904;2023-03-01T08:16:04;2.00;1.00
13642;DHT22;6894;52.196;9.904;2023-03-01T08:18:36;2.20;1.00
13642;DHT22;6894;52.196;9.904;2023-03-01T08:21:09;2.50;1.00
13642;DHT22;6894;52.196;9.904;2023-03-01T08:23:49;2.70;75.20
13642;DHT22;6894;52.196;9.904;2023-03-01T08:26:17;3.10;1.00
13642;DHT22;6894;52.196;9.904;2023-03-01T08:28:45;3.20;1.00
13642;DHT22;6894;52.196;9.904;2023-03-01T08:31:16;3.70;1.00
13642;DHT22;6894;52.196;9.904;2023-03-01T08:33:43;3.90;1.00
13642;DHT22;6894;52.196;9.904;2023-03-01T08:36:16;4.30;1.00
13642;DHT22;6894;52.196;9.904;2023-03-01T08:38:43;4.60;1.00
13642;DHT22;6894;52.196;9.904;2023-03-01T08:41:12;4.80;99.90
13642;DHT22;6894;52.196;9.904;2023-03-01T08:43:39;5.00;1.00
13642;DHT22;6894;52.196;9.904;2023-03-01T08:46:06;5.20;99.90
13642;DHT22;6894;52.196;9.904;2023-03-01T08:48:33;5.30;1.00
13642;DHT22;6894;52.196;9.904;2023-03-01T08:51:07;5.30;99.90
13642;DHT22;6894;52.196;9.904;2023-03-01T08:53:34;5.40;99.90
13642;DHT22;6894;52.196;9.904;2023-03-01T08:56:00;5.30;1.00
13642;DHT22;6894;52.196;9.904;2023-03-01T08:58:31;5.40;99.90
13642;DHT22;6894;52.196;9.904;2023-03-01T09:00:58;5.70;99.90
13642;DHT22;6894;52.196;9.904;2023-03-01T09:03:25;5.90;1.00
13642;DHT22;6894;52.196;9.904;2023-03-01T09:05:52;6.10;1.00
13642;DHT22;6894;52.196;9.904;2023-03-01T09:08:20;6.20;99.90
13642;DHT22;6894;52.196;9.904;2023-03-01T09:10:47;6.10;99.90
13642;DHT22;6894;52.196;9.904;2023-03-01T09:13:14;6.40;1.00
13642;DHT22;6894;52.196;9.904;2023-03-01T09:15:42;6.80;99.90
13642;DHT22;6894;52.196;9.904;2023-03-01T09:18:09;7.00;99.90
13642;DHT22;6894;52.196;9.904;2023-03-01T09:20:35;7.40;1.00
13642;DHT22;6894;52.196;9.904;2023-03-01T09:23:02;7.60;1.00
13642;DHT22;6894;52.196;9.904;2023-03-01T09:25:29;7.70;1.00
13642;DHT22;6894;52.196;9.904;2023-03-01T09:27:56;8.00;1.00
13642;DHT22;6894;52.196;9.904;2023-03-01T09:30:22;8.20;99.90
13642;DHT22;6894;52.196;9.904;2023-03-01T09:32:51;8.10;99.90
13642;DHT22;6894;52.196;9.904;2023-03-01T09:35:17;7.70;99.90
13642;DHT22;6894;52.196;9.904;2023-03-01T09:37:45;7.70;99.90
13642;DHT22;6894;52.196;9.904;2023-03-01T09:40:14;7.90;99.90
13642;DHT22;6894;52.196;9.904;2023-03-01T09:42:48;8.10;99.90
13642;DHT22;6894;52.196;9.904;2023-03-01T09:45:26;8.20;40.30
13642;DHT22;6894;52.196;9.904;2023-03-01T09:47:55;8.40;1.00
13642;DHT22;6894;52.196;9.904;2023-03-01T09:50:23;8.10;1.00
13642;DHT22;6894;52.196;9.904;2023-03-01T09:52:58;7.90;1.00
13642;DHT22;6894;52.196;9.904;2023-03-01T09:55:31;7.70;1.00
13642;DHT22;6894;52.196;9.904;2023-03-01T09:58:04;8.00;1.00
13642;DHT22;6894;52.196;9.904;2023-03-01T10:00:38;8.10;1.00
13642;DHT22;6894;52.196;9.904;2023-03-01T10:03:13;8.20;1.00
13642;DHT22;6894;52.196;9.904;2023-03-01T10:05:49;8.60;1.00
13642;DHT22;6894;52.196;9.904;2023-03-01T10:08:34;8.60;1.00
13642;DHT22;6894;52.196;9.904;2023-03-01T10:11:05;8.80;1.00
13642;DHT22;6894;52.196;9.904;2023-03-01T10:13:47;8.90;1.00
13642;DHT22;6894;52.196;9.904;2023-03-01T10:16:16;9.10;1.00
13642;DHT22;6894;52.196;9.904;2023-03-01T10:18:53;9.00;1.00
13642;DHT22;6894;52.196;9.904;2023-03-01T10:21:21;9.10;1.00
13642;DHT22;6894;52.196;9.904;2023-03-01T10:23:51;9.10;1.00
13642;DHT22;6894;52.196;9.904;2023-03-01T10:29:12;9.10;1.00
13642;DHT22;6894;52.196;9.904;2023-03-01T10:31:42;9.00;1.00
13642;DHT22;6894;52.196;9.904;2023-03-01T10:34:16;9.00;1.00
13642;DHT22;6894;52.196;9.904;2023-03-01T10:36:44;9.00;1.00
13642;DHT22;6894;52.196;9.904;2023-03-01T10:39:14;9.30;1.00
13642;DHT22;6894;52.196;9.904;2023-03-01T10:41:59;9.20;99.90
13642;DHT22;6894;52.196;9.904;2023-03-01T10:47:16;9.40;99.90
13642;DHT22;6894;52.196;9.904;2023-03-01T10:49:54;9.70;99.90
13642;DHT22;6894;52.196;9.904;2023-03-01T10:52:24;10.00;99.90
13642;DHT22;6894;52.196;9.904;2023-03-01T10:54:53;9.90;99.90
13642;DHT22;6894;52.196;9.904;2023-03-01T10:57:35;9.70;99.90
13642;DHT22;6894;52.196;9.904;2023-03-01T11:00:19;9.70;99.90
13642;DHT22;6894;52.196;9.904;2023-03-01T11:02:49;9.80;99.90
13642;DHT22;6894;52.196;9.904;2023-03-01T11:05:22;10.20;99.90
13642;DHT22;6894;52.196;9.904;2023-03-01T11:07:52;10.70;99.90
13642;DHT22;6894;52.196;9.904;2023-03-01T11:10:24;10.60;99.90
13642;DHT22;6894;52.196;9.904;2023-03-01T11:12:52;10.80;99.90
13642;DHT22;6894;52.196;9.904;2023-03-01T11:15:27;10.80;74.10
13642;DHT22;6894;52.196;9.904;2023-03-01T11:17:54;10.60;60.50
13642;DHT22;6894;52.196;9.904;2023-03-01T11:20:30;10.60;98.00
13642;DHT22;6894;52.196;9.904;2023-03-01T11:23:01;10.70;48.80
13642;DHT22;6894;52.196;9.904;2023-03-01T11:25:32;10.50;1.00
13642;DHT22;6894;52.196;9.904;2023-03-01T11:28:03;10.30;74.90
13642;DHT22;6894;52.196;9.904;2023-03-01T11:30:34;10.20;81.90
13642;DHT22;6894;52.196;9.904;2023-03-01T11:33:11;10.20;59.50
13642;DHT22;6894;52.196;9.904;2023-03-01T11:35:45;10.30;92.10
13642;DHT22;6894;52.196;9.904;2023-03-01T11:38:19;10.60;69.40
13642;DHT22;6894;52.196;9.904;2023-03-01T11:40:50;10.90;61.00
13642;DHT22;6894;52.196;9.904;2023-03-01T11:43:23;11.00;1.00
13642;DHT22;6894;52.196;9.904;2023-03-01T11:46:21;10.70;1.00
13642;DHT22;6894;52.196;9.904;2023-03-01T11:48:57;10.90;1.00
13642;DHT22;6894;52.196;9.904;2023-03-01T11:51:39;11.20;1.00
13642;DHT22;6894;52.196;9.904;2023-03-01T11:54:17;11.40;1.00
13642;DHT22;6894;52.196;9.904;2023-03-01T11:56:47;11.40;1.00
13642;DHT22;6894;52.196;9.904;2023-03-01T11:59:43;11.30;1.00
13642;DHT22;6894;52.196;9.904;2023-03-01T12:02:49;11.50;1.00
13642;DHT22;6894;52.196;9.904;2023-03-01T12:05:28;11.40;1.00
13642;DHT22;6894;52.196;9.904;2023-03-01T12:08:07;11.20;1.00
13642;DHT22;6894;52.196;9.904;2023-03-01T12:10:42;11.40;1.00
13642;DHT22;6894;52.196;9.904;2023-03-01T12:13:23;11.40;1.00
13642;DHT22;6894;52.196;9.904;2023-03-01T12:16:13;11.40;1.00
13642;DHT22;6894;52.196;9.904;2023-03-01T12:19:05;11.40;1.00
13642;DHT22;6894;52.196;9.904;2023-03-01T12:21:48;11.70;1.00
13642;DHT22;6894;52.196;9.904;2023-03-01T12:24:50;11.80;1.00
13642;DHT22;6894;52.196;9.904;2023-03-01T12:27:43;11.40;1.00
13642;DHT22;6894;52.196;9.904;2023-03-01T12:30:23;11.60;1.00
13642;DHT22;6894;52.196;9.904;2023-03-01T12:33:05;11.70;1.00
13642;DHT22;6894;52.196;9.904;2023-03-01T12:36:03;11.80;1.00
13642;DHT22;6894;52.196;9.904;2023-03-01T12:38:40;11.90;1.00
13642;DHT22;6894;52.196;9.904;2023-03-01T12:41:21;12.10;1.00
13642;DHT22;6894;52.196;9.904;2023-03-01T12:44:01;12.40;1.00
13642;DHT22;6894;52.196;9.904;2023-03-01T12:46:46;12.60;1.00
13642;DHT22;6894;52.196;9.904;2023-03-01T12:49:20;12.40;1.00
13642;DHT22;6894;52.196;9.904;2023-03-01T12:51:53;12.40;1.00
13642;DHT22;6894;52.196;9.904;2023-03-01T12:54:28;12.40;1.00
13642;DHT22;6894;52.196;9.904;2023-03-01T12:57:02;12.40;1.00
13642;DHT22;6894;52.196;9.904;2023-03-01T12:59:34;12.40;1.00
13642;DHT22;6894;52.196;9.904;2023-03-01T13:02:09;12.60;1.00
13642;DHT22;6894;52.196;9.904;2023-03-01T13:05:00;12.60;1.00
13642;DHT22;6894;52.196;9.904;2023-03-01T13:07:32;12.70;1.00
13642;DHT22;6894;52.196;9.904;2023-03-01T13:10:16;12.80;1.00
13642;DHT22;6894;52.196;9.904;2023-03-01T13:12:56;12.20;1.00
13642;DHT22;6894;52.196;9.904;2023-03-01T13:15:29;12.10;1.00
13642;DHT22;6894;52.196;9.904;2023-03-01T13:17:57;12.40;1.00
13642;DHT22;6894;52.196;9.904;2023-03-01T13:20:29;12.50;1.00
13642;DHT22;6894;52.196;9.904;2023-03-01T13:23:09;12.30;1.00
13642;DHT22;6894;52.196;9.904;2023-03-01T13:26:01;12.00;1.00
13642;DHT22;6894;52.196;9.904;2023-03-01T13:28:52;12.10;1.00
13642;DHT22;6894;52.196;9.904;2023-03-01T13:34:40;12.10;1.00
13642;DHT22;6894;52.196;9.904;2023-03-01T13:37:09;12.20;1.00
13642;DHT22;6894;52.196;9.904;2023-03-01T13:39:39;12.50;1.00
13642;DHT22;6894;52.196;9.904;2023-03-01T13:42:30;12.50;1.00
13642;DHT22;6894;52.196;9.904;2023-03-01T13:44:59;12.40;1.00
13642;DHT22;6894;52.196;9.904;2023-03-01T13:47:27;12.40;1.00
13642;DHT22;6894;52.196;9.904;2023-03-01T13:49:56;12.50;1.00
13642;DHT22;6894;52.196;9.904;2023-03-01T13:52:38;12.50;1.00
13642;DHT22;6894;52.196;9.904;2023-03-01T13:55:16;12.30;1.00
13642;DHT22;6894;52.196;9.904;2023-03-01T13:57:46;12.30;1.00
13642;DHT22;6894;52.196;9.904;2023-03-01T14:00:28;12.20;1.00
13642;DHT22;6894;52.196;9.904;2023-03-01T14:03:10;12.40;1.00
13642;DHT22;6894;52.196;9.904;2023-03-01T14:05:38;12.50;1.00
13642;DHT22;6894;52.196;9.904;2023-03-01T14:08:14;12.50;1.00
13642;DHT22;6894;52.196;9.904;2023-03-01T14:10:54;12.30;1.00
13642;DHT22;6894;52.196;9.904;2023-03-01T14:13:35;12.10;1.00
13642;DHT22;6894;52.196;9.904;2023-03-01T14:16:21;11.90;1.00
13642;DHT22;6894;52.196;9.904;2023-03-01T14:18:59;12.20;1.00
13642;DHT22;6894;52.196;9.904;2023-03-01T14:21:29;12.70;1.00
13642;DHT22;6894;52.196;9.904;2023-03-01T14:23:57;12.80;1.00
13642;DHT22;6894;52.196;9.904;2023-03-01T14:26:24;12.60;1.00
13642;DHT22;6894;52.196;9.904;2023-03-01T14:28:51;12.40;1.00
13642;DHT22;6894;52.196;9.904;2023-03-01T14:31:34;12.40;1.00
13642;DHT22;6894;52.196;9.904;2023-03-01T14:34:02;12.70;1.00
13642;DHT22;6894;52.196;9.904;2023-03-01T14:36:31;12.50;1.00
13642;DHT22;6894;52.196;9.904;2023-03-01T14:38:58;12.40;1.00
13642;DHT22;6894;52.196;9.904;2023-03-01T14:41:32;12.00;1.00
13642;DHT22;6894;52.196;9.904;2023-03-01T14:44:03;12.20;1.00
13642;DHT22;6894;52.196;9.904;2023-03-01T14:46:34;12.40;1.00
13642;DHT22;6894;52.196;9.904;2023-03-01T14:49:04;12.60;1.00
13642;DHT22;6894;52.196;9.904;2023-03-01T14:51:36;12.70;1.00
13642;DHT22;6894;52.196;9.904;2023-03-01T14:54:12;12.80;1.00
13642;DHT22;6894;52.196;9.904;2023-03-01T14:56:46;12.60;1.00
13642;DHT22;6894;52.196;9.904;2023-03-01T14:59:13;12.20;1.00
13642;DHT22;6894;52.196;9.904;2023-03-01T15:01:42;12.00;1.00
13642;DHT22;6894;52.196;9.904;2023-03-01T15:04:12;11.90;1.00
13642;DHT22;6894;52.196;9.904;2023-03-01T15:06:40;11.70;1.00
13642;DHT22;6894;52.196;9.904;2023-03-01T15:09:13;11.60;1.00
13642;DHT22;6894;52.196;9.904;2023-03-01T15:11:40;11.50;1.00
13642;DHT22;6894;52.196;9.904;2023-03-01T15:14:27;11.40;1.00
13642;DHT22;6894;52.196;9.904;2023-03-01T15:16:56;11.30;1.00
13642;DHT22;6894;52.196;9.904;2023-03-01T15:19:27;10.90;1.00
13642;DHT22;6894;52.196;9.904;2023-03-01T15:21:55;10.70;1.00
13642;DHT22;6894;52.196;9.904;2023-03-01T15:24:24;10.70;1.00
13642;DHT22;6894;52.196;9.904;2023-03-01T15:26:55;10.50;1.00
13642;DHT22;6894;52.196;9.904;2023-03-01T15:29:24;10.00;1.00
13642;DHT22;6894;52.196;9.904;2023-03-01T15:31:58;9.90;1.00
13642;DHT22;6894;52.196;9.904;2023-03-01T15:34:27;9.80;1.00
13642;DHT22;6894;52.196;9.904;2023-03-01T15:36:56;9.70;1.00
13642;DHT22;6894;52.196;9.904;2023-03-01T15:39:32;9.60;1.00
13642;DHT22;6894;52.196;9.904;2023-03-01T15:42:03;9.40;1.00
13642;DHT22;6894;52.196;9.904;2023-03-01T15:44:35;9.20;1.00
13642;DHT22;6894;52.196;9.904;2023-03-01T15:47:21;9.10;1.00
13642;DHT22;6894;52.196;9.904;2023-03-01T15:49:51;9.00;1.00
13642;DHT22;6894;52.196;9.904;2023-03-01T15:52:22;9.00;4.00
13642;DHT22;6894;52.196;9.904;2023-03-01T15:54:55;8.90;30.70
13642;DHT22;6894;52.196;9.904;2023-03-01T15:57:21;8.70;49.30
13642;DHT22;6894;52.196;9.904;2023-03-01T15:59:48;8.40;94.40
13642;DHT22;6894;52.196;9.904;2023-03-01T16:02:16;8.30;99.90
13642;DHT22;6894;52.196;9.904;2023-03-01T16:04:46;8.20;99.90
13642;DHT22;6894;52.196;9.904;2023-03-01T16:07:14;8.10;99.90
13642;DHT22;6894;52.196;9.904;2023-03-01T16:09:40;8.10;99.90
13642;DHT22;6894;52.196;9.904;2023-03-01T16:12:12;8.00;99.90
13642;DHT22;6894;52.196;9.904;2023-03-01T16:14:40;7.90;99.90
13642;DHT22;6894;52.196;9.904;2023-03-01T16:17:07;7.70;99.90
13642;DHT22;6894;52.196;9.904;2023-03-01T16:19:36;7.60;1.00
13642;DHT22;6894;52.196;9.904;2023-03-01T16:22:04;7.60;1.00
13642;DHT22;6894;52.196;9.904;2023-03-01T16:24:31;7.50;1.00
13642;DHT22;6894;52.196;9.904;2023-03-01T16:26:57;7.30;1.00
13642;DHT22;6894;52.196;9.904;2023-03-01T16:29:24;7.30;1.00
13642;DHT22;6894;52.196;9.904;2023-03-01T16:31:51;7.20;1.00